sensor_id;sensor_type;location;lat;lon;timestamp;P1;durP1;ratioP1;P2;durP2;ratioP2
34573;SDS011;20809;49.594;8.734;2023-05-10T00:02:18;1.60;;;1.40;;
34573;SDS011;20809;49.594;8.734;2023-05-10T00:05:19;3.40;;;1.33;;
34573;SDS011;20809;49.594;8.734;2023-05-10T00:08:20;1.83;;;1.17;;
34573;SDS011;20809;49.594;8.734;2023-05-10T00:11:20;1.92;;;1.08;;
34573;SDS011;20809;49.594;8.734;2023-05-10T00:14:21;1.20;;;1.20;;
34573;SDS011;20809;49.594;8.734;2023-05-10T00:17:21;1.93;;;1.30;;
34573;SDS011;20809;49.594;8.734;2023-05-10T00:20:22;2.63;;;1.10;;
34573;SDS011;20809;49.594;8.734;2023-05-10T00:23:23;1.10;;;1.00;;
34573;SDS011;20809;49.594;8.734;2023-05-10T00:26:23;1.95;;;1.17;;
34573;SDS011;20809;49.594;8.734;2023-05-10T00:29:24;1.57;;;1.37;;
34573;SDS011;20809;49.594;8.734;2023-05-10T00:32:24;1.20;;;1.10;;
34573;SDS011;20809;49.594;8.734;2023-05-10T00:35:25;2.07;;;1.97;;
34573;SDS011;20809;49.594;8.734;2023-05-10T00:41:27;2.17;;;1.97;;
34573;SDS011;20809;49.594;8.734;2023-05-10T00:44:27;2.58;;;1.40;;
34573;SDS011;20809;49.594;8.734;2023-05-10T00:47:28;1.58;;;1.48;;
34573;SDS011;20809;49.594;8.734;2023-05-10T00:50:29;1.67;;;1.58;;
34573;SDS011;20809;49.594;8.734;2023-05-10T00:53:31;1.83;;;1.40;;
34573;SDS011;20809;49.594;8.734;2023-05-10T00:59:09;1.58;;;1.48;;
34573;SDS011;20809;49.594;8.734;2023-05-10T01:02:11;2.17;;;2.03;;
34573;SDS011;20809;49.594;8.734;2023-05-10T01:05:18;2.17;;;1.98;;
34573;SDS011;20809;49.594;8.734;2023-05-10T01:08:21;3.33;;;2.05;;
34573;SDS011;20809;49.594;8.734;2023-05-10T01:11:22;2.63;;;2.42;;
34573;SDS011;20809;49.594;8.734;2023-05-10T01:14:24;2.35;;;2.22;;
34573;SDS011;20809;49.594;8.734;2023-05-10T01:17:26;4.35;;;3.53;;
34573;SDS011;20809;49.594;8.734;2023-05-10T01:20:29;4.53;;;3.28;;
34573;SDS011;20809;49.594;8.734;2023-05-10T01:23:42;4.18;;;3.88;;
34573;SDS011;20809;49.594;8.734;2023-05-10T01:37:20;4.22;;;3.92;;
34573;SDS011;20809;49.594;8.734;2023-05-10T01:44:09;3.83;;;3.33;;
34573;SDS011;20809;49.594;8.734;2023-05-10T01:47:38;2.97;;;2.67;;
34573;SDS011;20809;49.594;8.734;2023-05-10T01:50:43;2.72;;;2.53;;
34573;SDS011;20809;49.594;8.734;2023-05-10T01:54:25;2.72;;;2.53;;
34573;SDS011;20809;49.594;8.734;2023-05-10T01:57:39;5.30;;;2.45;;
34573;SDS011;20809;49.594;8.734;2023-05-10T02:00:49;3.30;;;2.80;;
34573;SDS011;20809;49.594;8.734;2023-05-10T02:04:17;4.05;;;2.63;;
34573;SDS011;20809;49.594;8.734;2023-05-10T02:08:05;3.88;;;2.83;;
34573;SDS011;20809;49.594;8.734;2023-05-10T02:11:07;3.05;;;2.75;;
34573;SDS011;20809;49.594;8.734;2023-05-10T02:14:16;2.30;;;2.10;;
34573;SDS011;20809;49.594;8.734;2023-05-10T02:17:42;2.53;;;2.30;;
34573;SDS011;20809;49.594;8.734;2023-05-10T02:20:56;5.00;;;2.70;;
34573;SDS011;20809;49.594;8.734;2023-05-10T02:24:07;2.70;;;2.47;;
34573;SDS011;20809;49.594;8.734;2023-05-10T02:27:21;2.75;;;2.53;;
34573;SDS011;20809;49.594;8.734;2023-05-10T02:33:38;6.13;;;2.35;;
34573;SDS011;20809;49.594;8.734;2023-05-10T02:36:41;2.40;;;2.20;;
34573;SDS011;20809;49.594;8.734;2023-05-10T02:39:45;2.25;;;1.65;;
34573;SDS011;20809;49.594;8.734;2023-05-10T02:42:54;4.28;;;1.80;;
34573;SDS011;20809;49.594;8.734;2023-05-10T02:46:01;6.82;;;2.25;;
34573;SDS011;20809;49.594;8.734;2023-05-10T02:49:15;5.45;;;1.50;;
34573;SDS011;20809;49.594;8.734;2023-05-10T02:52:27;3.00;;;1.40;;
34573;SDS011;20809;49.594;8.734;2023-05-10T02:55:40;1.55;;;1.45;;
34573;SDS011;20809;49.594;8.734;2023-05-10T02:58:50;1.67;;;1.33;;
34573;SDS011;20809;49.594;8.734;2023-05-10T03:01:56;1.50;;;1.40;;
34573;SDS011;20809;49.594;8.734;2023-05-10T03:05:02;1.50;;;1.40;;
34573;SDS011;20809;49.594;8.734;2023-05-10T03:08:11;2.70;;;2.13;;
34573;SDS011;20809;49.594;8.734;2023-05-10T03:18:01;1.98;;;1.88;;
34573;SDS011;20809;49.594;8.734;2023-05-10T03:21:22;3.15;;;1.70;;
34573;SDS011;20809;49.594;8.734;2023-05-10T03:24:33;5.23;;;1.77;;
34573;SDS011;20809;49.594;8.734;2023-05-10T03:27:44;2.53;;;2.00;;
34573;SDS011;20809;49.594;8.734;2023-05-10T03:30:51;3.80;;;2.45;;
34573;SDS011;20809;49.594;8.734;2023-05-10T03:33:59;2.05;;;1.73;;
34573;SDS011;20809;49.594;8.734;2023-05-10T03:37:14;2.20;;;1.98;;
34573;SDS011;20809;49.594;8.734;2023-05-10T03:40:45;2.47;;;2.10;;
34573;SDS011;20809;49.594;8.734;2023-05-10T03:43:56;3.83;;;2.10;;
34573;SDS011;20809;49.594;8.734;2023-05-10T03:47:04;2.13;;;1.80;;
34573;SDS011;20809;49.594;8.734;2023-05-10T03:50:12;4.15;;;2.13;;
34573;SDS011;20809;49.594;8.734;2023-05-10T03:53:23;2.00;;;1.80;;
34573;SDS011;20809;49.594;8.734;2023-05-10T03:56:38;2.80;;;2.53;;
34573;SDS011;20809;49.594;8.734;2023-05-10T03:59:48;3.40;;;2.55;;
34573;SDS011;20809;49.594;8.734;2023-05-10T04:02:52;3.50;;;3.15;;
34573;SDS011;20809;49.594;8.734;2023-05-10T04:06:01;3.25;;;2.40;;
34573;SDS011;20809;49.594;8.734;2023-05-10T04:09:10;4.45;;;2.60;;
34573;SDS011;20809;49.594;8.734;2023-05-10T04:12:20;2.92;;;2.65;;
34573;SDS011;20809;49.594;8.734;2023-05-10T04:15:30;2.85;;;2.63;;
34573;SDS011;20809;49.594;8.734;2023-05-10T04:18:36;3.42;;;3.15;;
34573;SDS011;20809;49.594;8.734;2023-05-10T04:21:45;3.22;;;3.00;;
34573;SDS011;20809;49.594;8.734;2023-05-10T04:24:57;3.33;;;2.72;;
34573;SDS011;20809;49.594;8.734;2023-05-10T04:28:07;4.32;;;3.83;;
34573;SDS011;20809;49.594;8.734;2023-05-10T04:31:14;4.07;;;3.00;;
34573;SDS011;20809;49.594;8.734;2023-05-10T04:34:28;3.37;;;3.17;;
34573;SDS011;20809;49.594;8.734;2023-05-10T04:37:48;3.75;;;2.95;;
34573;SDS011;20809;49.594;8.734;2023-05-10T04:41:06;2.88;;;2.13;;
34573;SDS011;20809;49.594;8.734;2023-05-10T04:44:45;4.32;;;2.58;;
34573;SDS011;20809;49.594;8.734;2023-05-10T04:48:05;2.65;;;2.20;;
34573;SDS011;20809;49.594;8.734;2023-05-10T04:51:26;2.50;;;2.10;;
34573;SDS011;20809;49.594;8.734;2023-05-10T04:54:47;4.10;;;3.70;;
34573;SDS011;20809;49.594;8.734;2023-05-10T04:58:42;3.28;;;1.88;;
34573;SDS011;20809;49.594;8.734;2023-05-10T05:02:35;2.05;;;1.80;;
34573;SDS011;20809;49.594;8.734;2023-05-10T05:05:45;4.40;;;2.03;;
34573;SDS011;20809;49.594;8.734;2023-05-10T05:08:51;2.40;;;2.20;;
34573;SDS011;20809;49.594;8.734;2023-05-10T05:12:29;1.95;;;1.85;;
34573;SDS011;20809;49.594;8.734;2023-05-10T05:15:39;4.57;;;2.20;;
34573;SDS011;20809;49.594;8.734;2023-05-10T05:18:57;2.65;;;2.17;;
34573;SDS011;20809;49.594;8.734;2023-05-10T05:22:20;4.53;;;1.90;;
34573;SDS011;20809;49.594;8.734;2023-05-10T05:25:36;2.22;;;1.50;;
34573;SDS011;20809;49.594;8.734;2023-05-10T05:28:49;5.50;;;1.88;;
34573;SDS011;20809;49.594;8.734;2023-05-10T05:32:37;3.10;;;1.73;;
34573;SDS011;20809;49.594;8.734;2023-05-10T05:35:52;1.95;;;1.42;;
34573;SDS011;20809;49.594;8.734;2023-05-10T05:39:30;2.42;;;1.60;;
34573;SDS011;20809;49.594;8.734;2023-05-10T05:42:48;2.05;;;1.42;;
34573;SDS011;20809;49.594;8.734;2023-05-10T05:46:14;4.07;;;1.65;;
34573;SDS011;20809;49.594;8.734;2023-05-10T05:49:34;3.13;;;1.45;;
34573;SDS011;20809;49.594;8.734;2023-05-10T05:52:47;1.40;;;1.30;;
34573;SDS011;20809;49.594;8.734;2023-05-10T05:55:58;1.75;;;1.65;;
34573;SDS011;20809;49.594;8.734;2023-05-10T05:59:18;1.63;;;1.40;;
34573;SDS011;20809;49.594;8.734;2023-05-10T06:02:38;1.38;;;1.25;;
34573;SDS011;20809;49.594;8.734;2023-05-10T06:05:56;1.75;;;1.40;;
34573;SDS011;20809;49.594;8.734;2023-05-10T06:09:35;11.43;;;2.28;;
34573;SDS011;20809;49.594;8.734;2023-05-10T06:12:46;2.30;;;2.10;;
34573;SDS011;20809;49.594;8.734;2023-05-10T06:15:59;2.03;;;1.60;;
34573;SDS011;20809;49.594;8.734;2023-05-10T06:19:31;2.42;;;1.85;;
34573;SDS011;20809;49.594;8.734;2023-05-10T06:22:48;2.03;;;1.52;;
34573;SDS011;20809;49.594;8.734;2023-05-10T06:25:53;6.63;;;2.08;;
34573;SDS011;20809;49.594;8.734;2023-05-10T06:29:08;2.47;;;1.90;;
34573;SDS011;20809;49.594;8.734;2023-05-10T06:32:32;2.40;;;2.22;;
34573;SDS011;20809;49.594;8.734;2023-05-10T06:35:41;2.28;;;2.08;;
34573;SDS011;20809;49.594;8.734;2023-05-10T06:38:50;1.80;;;1.70;;
34573;SDS011;20809;49.594;8.734;2023-05-10T06:42:01;3.53;;;1.80;;
34573;SDS011;20809;49.594;8.734;2023-05-10T06:45:13;2.28;;;1.48;;
34573;SDS011;20809;49.594;8.734;2023-05-10T06:48:20;1.77;;;1.67;;
34573;SDS011;20809;49.594;8.734;2023-05-10T06:51:30;2.90;;;1.63;;
34573;SDS011;20809;49.594;8.734;2023-05-10T06:54:39;1.42;;;1.33;;
34573;SDS011;20809;49.594;8.734;2023-05-10T06:57:47;2.80;;;1.48;;
34573;SDS011;20809;49.594;8.734;2023-05-10T07:00:52;3.63;;;1.25;;
34573;SDS011;20809;49.594;8.734;2023-05-10T07:04:00;3.95;;;1.20;;
34573;SDS011;20809;49.594;8.734;2023-05-10T07:07:11;2.50;;;1.13;;
34573;SDS011;20809;49.594;8.734;2023-05-10T07:10:16;1.77;;;1.10;;
34573;SDS011;20809;49.594;8.734;2023-05-10T07:13:26;4.68;;;1.77;;
34573;SDS011;20809;49.594;8.734;2023-05-10T07:16:47;3.63;;;1.40;;
34573;SDS011;20809;49.594;8.734;2023-05-10T07:20:29;2.15;;;1.30;;
34573;SDS011;20809;49.594;8.734;2023-05-10T07:23:42;1.55;;;1.25;;
34573;SDS011;20809;49.594;8.734;2023-05-10T07:26:56;3.33;;;1.15;;
34573;SDS011;20809;49.594;8.734;2023-05-10T07:30:16;3.22;;;1.10;;
34573;SDS011;20809;49.594;8.734;2023-05-10T07:33:34;1.75;;;1.38;;
34573;SDS011;20809;49.594;8.734;2023-05-10T07:36:46;1.80;;;1.33;;
34573;SDS011;20809;49.594;8.734;2023-05-10T07:40:10;2.42;;;1.50;;
34573;SDS011;20809;49.594;8.734;2023-05-10T07:43:29;3.35;;;1.20;;
34573;SDS011;20809;49.594;8.734;2023-05-10T07:46:40;2.38;;;1.30;;
34573;SDS011;20809;49.594;8.734;2023-05-10T07:49:51;1.52;;;1.15;;
34573;SDS011;20809;49.594;8.734;2023-05-10T07:53:13;3.30;;;1.08;;
34573;SDS011;20809;49.594;8.734;2023-05-10T07:56:54;1.52;;;0.90;;
34573;SDS011;20809;49.594;8.734;2023-05-10T08:00:13;2.22;;;1.00;;
34573;SDS011;20809;49.594;8.734;2023-05-10T08:03:42;1.13;;;0.85;;
34573;SDS011;20809;49.594;8.734;2023-05-10T08:06:56;1.65;;;1.15;;
34573;SDS011;20809;49.594;8.734;2023-05-10T08:10:15;3.75;;;1.05;;
34573;SDS011;20809;49.594;8.734;2023-05-10T08:13:29;4.05;;;1.10;;
34573;SDS011;20809;49.594;8.734;2023-05-10T08:16:40;1.02;;;0.90;;
34573;SDS011;20809;49.594;8.734;2023-05-10T08:19:52;1.27;;;1.10;;
34573;SDS011;20809;49.594;8.734;2023-05-10T08:23:41;2.58;;;1.45;;
34573;SDS011;20809;49.594;8.734;2023-05-10T08:27:31;1.30;;;1.20;;
34573;SDS011;20809;49.594;8.734;2023-05-10T08:30:57;4.55;;;3.33;;
34573;SDS011;20809;49.594;8.734;2023-05-10T08:34:41;1.40;;;1.30;;
34573;SDS011;20809;49.594;8.734;2023-05-10T08:37:59;2.25;;;1.20;;
34573;SDS011;20809;49.594;8.734;2023-05-10T08:41:08;2.92;;;1.20;;
34573;SDS011;20809;49.594;8.734;2023-05-10T08:44:19;1.50;;;1.40;;
34573;SDS011;20809;49.594;8.734;2023-05-10T08:47:37;2.83;;;1.52;;
34573;SDS011;20809;49.594;8.734;2023-05-10T08:50:48;2.40;;;1.25;;
34573;SDS011;20809;49.594;8.734;2023-05-10T08:54:00;3.30;;;1.23;;
34573;SDS011;20809;49.594;8.734;2023-05-10T08:57:10;2.25;;;1.13;;
34573;SDS011;20809;49.594;8.734;2023-05-10T09:00:16;1.20;;;1.10;;
34573;SDS011;20809;49.594;8.734;2023-05-10T09:03:23;1.40;;;1.30;;
34573;SDS011;20809;49.594;8.734;2023-05-10T09:06:28;1.58;;;1.48;;
34573;SDS011;20809;49.594;8.734;2023-05-10T09:09:35;1.63;;;1.13;;
34573;SDS011;20809;49.594;8.734;2023-05-10T09:12:40;2.70;;;1.45;;
34573;SDS011;20809;49.594;8.734;2023-05-10T09:15:46;1.23;;;1.05;;
34573;SDS011;20809;49.594;8.734;2023-05-10T09:18:49;1.88;;;1.27;;
34573;SDS011;20809;49.594;8.734;2023-05-10T09:21:53;2.40;;;1.25;;
34573;SDS011;20809;49.594;8.734;2023-05-10T09:25:06;0.93;;;0.93;;
34573;SDS011;20809;49.594;8.734;2023-05-10T09:28:16;2.05;;;1.33;;
34573;SDS011;20809;49.594;8.734;2023-05-10T09:32:07;1.40;;;1.30;;
34573;SDS011;20809;49.594;8.734;2023-05-10T09:35:14;2.58;;;1.15;;
34573;SDS011;20809;49.594;8.734;2023-05-10T09:38:26;1.70;;;0.98;;
34573;SDS011;20809;49.594;8.734;2023-05-10T09:42:02;4.07;;;1.60;;
34573;SDS011;20809;49.594;8.734;2023-05-10T09:45:16;4.07;;;1.48;;
34573;SDS011;20809;49.594;8.734;2023-05-10T09:48:54;1.85;;;1.45;;
34573;SDS011;20809;49.594;8.734;2023-05-10T09:52:13;2.92;;;1.50;;
34573;SDS011;20809;49.594;8.734;2023-05-10T09:55:46;3.75;;;2.25;;
34573;SDS011;20809;49.594;8.734;2023-05-10T09:59:03;2.45;;;1.83;;
34573;SDS011;20809;49.594;8.734;2023-05-10T10:02:17;2.17;;;1.88;;
34573;SDS011;20809;49.594;8.734;2023-05-10T10:06:19;2.55;;;2.35;;
34573;SDS011;20809;49.594;8.734;2023-05-10T10:10:10;5.43;;;3.92;;
34573;SDS011;20809;49.594;8.734;2023-05-10T10:13:59;13.30;;;3.85;;
34573;SDS011;20809;49.594;8.734;2023-05-10T10:17:31;2.38;;;1.90;;
34573;SDS011;20809;49.594;8.734;2023-05-10T10:21:00;1.77;;;1.63;;
34573;SDS011;20809;49.594;8.734;2023-05-10T10:24:01;1.60;;;1.33;;
34573;SDS011;20809;49.594;8.734;2023-05-10T10:27:10;1.50;;;1.40;;
34573;SDS011;20809;49.594;8.734;2023-05-10T10:37:24;1.33;;;1.23;;
34573;SDS011;20809;49.594;8.734;2023-05-10T10:41:38;1.30;;;1.05;;
34573;SDS011;20809;49.594;8.734;2023-05-10T10:45:33;2.85;;;2.17;;
34573;SDS011;20809;49.594;8.734;2023-05-10T10:55:53;6.32;;;2.20;;
34573;SDS011;20809;49.594;8.734;2023-05-10T10:59:07;4.35;;;1.85;;
34573;SDS011;20809;49.594;8.734;2023-05-10T11:02:08;3.35;;;2.30;;
34573;SDS011;20809;49.594;8.734;2023-05-10T11:05:22;2.65;;;2.03;;
34573;SDS011;20809;49.594;8.734;2023-05-10T11:08:42;2.00;;;1.85;;
34573;SDS011;20809;49.594;8.734;2023-05-10T11:12:08;1.75;;;1.38;;
34573;SDS011;20809;49.594;8.734;2023-05-10T11:15:09;1.88;;;1.10;;
34573;SDS011;20809;49.594;8.734;2023-05-10T11:18:40;1.37;;;1.27;;
34573;SDS011;20809;49.594;8.734;2023-05-10T11:22:01;3.15;;;1.13;;
34573;SDS011;20809;49.594;8.734;2023-05-10T11:25:13;2.63;;;1.75;;
34573;SDS011;20809;49.594;8.734;2023-05-10T11:28:14;2.10;;;1.15;;
34573;SDS011;20809;49.594;8.734;2023-05-10T11:31:17;3.45;;;1.30;;
34573;SDS011;20809;49.594;8.734;2023-05-10T11:34:25;4.60;;;2.08;;
34573;SDS011;20809;49.594;8.734;2023-05-10T11:37:28;1.23;;;1.13;;
34573;SDS011;20809;49.594;8.734;2023-05-10T11:40:32;1.30;;;0.90;;
34573;SDS011;20809;49.594;8.734;2023-05-10T11:43:32;2.00;;;0.90;;
34573;SDS011;20809;49.594;8.734;2023-05-10T11:46:33;2.22;;;1.63;;
34573;SDS011;20809;49.594;8.734;2023-05-10T11:49:34;1.80;;;1.58;;
34573;SDS011;20809;49.594;8.734;2023-05-10T11:52:37;1.45;;;1.02;;
34573;SDS011;20809;49.594;8.734;2023-05-10T11:55:38;3.50;;;1.10;;
34573;SDS011;20809;49.594;8.734;2023-05-10T11:58:39;2.03;;;0.90;;
34573;SDS011;20809;49.594;8.734;2023-05-10T12:01:41;1.50;;;1.00;;
34573;SDS011;20809;49.594;8.734;2023-05-10T12:04:42;1.23;;;1.13;;
34573;SDS011;20809;49.594;8.734;2023-05-10T12:07:42;2.25;;;1.50;;
34573;SDS011;20809;49.594;8.734;2023-05-10T12:10:43;3.60;;;1.50;;
34573;SDS011;20809;49.594;8.734;2023-05-10T12:13:44;2.30;;;1.50;;
34573;SDS011;20809;49.594;8.734;2023-05-10T12:16:47;3.58;;;1.70;;
34573;SDS011;20809;49.594;8.734;2023-05-10T12:19:48;2.30;;;2.10;;
34573;SDS011;20809;49.594;8.734;2023-05-10T12:22:53;4.25;;;2.58;;
34573;SDS011;20809;49.594;8.734;2023-05-10T12:26:01;1.85;;;1.30;;
34573;SDS011;20809;49.594;8.734;2023-05-10T12:29:15;3.33;;;1.42;;
34573;SDS011;20809;49.594;8.734;2023-05-10T12:32:17;1.83;;;1.13;;
34573;SDS011;20809;49.594;8.734;2023-05-10T12:35:17;1.80;;;1.35;;
34573;SDS011;20809;49.594;8.734;2023-05-10T12:38:24;2.95;;;1.50;;
34573;SDS011;20809;49.594;8.734;2023-05-10T12:41:26;1.52;;;0.90;;
34573;SDS011;20809;49.594;8.734;2023-05-10T12:44:27;2.08;;;1.00;;
34573;SDS011;20809;49.594;8.734;2023-05-10T12:47:28;1.75;;;0.95;;
34573;SDS011;20809;49.594;8.734;2023-05-10T12:50:29;1.15;;;0.90;;
34573;SDS011;20809;49.594;8.734;2023-05-10T12:53:29;1.08;;;0.98;;
34573;SDS011;20809;49.594;8.734;2023-05-10T12:56:30;1.00;;;0.70;;
34573;SDS011;20809;49.594;8.734;2023-05-10T12:59:31;2.47;;;0.70;;
34573;SDS011;20809;49.594;8.734;2023-05-10T13:02:31;1.00;;;0.80;;
34573;SDS011;20809;49.594;8.734;2023-05-10T13:05:32;0.73;;;0.50;;
34573;SDS011;20809;49.594;8.734;2023-05-10T13:08:33;6.72;;;1.02;;
34573;SDS011;20809;49.594;8.734;2023-05-10T13:11:34;0.73;;;0.70;;
34573;SDS011;20809;49.594;8.734;2023-05-10T13:14:35;3.05;;;1.13;;
34573;SDS011;20809;49.594;8.734;2023-05-10T13:17:35;1.02;;;0.70;;
34573;SDS011;20809;49.594;8.734;2023-05-10T13:20:38;2.35;;;0.85;;
34573;SDS011;20809;49.594;8.734;2023-05-10T13:23:39;2.92;;;0.75;;
34573;SDS011;20809;49.594;8.734;2023-05-10T13:26:40;1.25;;;0.88;;
34573;SDS011;20809;49.594;8.734;2023-05-10T13:29:40;1.48;;;0.75;;
34573;SDS011;20809;49.594;8.734;2023-05-10T13:32:41;1.52;;;0.88;;
34573;SDS011;20809;49.594;8.734;2023-05-10T13:35:42;2.05;;;0.80;;
34573;SDS011;20809;49.594;8.734;2023-05-10T13:38:42;1.10;;;0.60;;
34573;SDS011;20809;49.594;8.734;2023-05-10T13:41:43;7.43;;;0.80;;
34573;SDS011;20809;49.594;8.734;2023-05-10T13:44:43;2.90;;;0.63;;
34573;SDS011;20809;49.594;8.734;2023-05-10T13:47:44;3.22;;;0.73;;
34573;SDS011;20809;49.594;8.734;2023-05-10T13:50:44;1.13;;;0.80;;
34573;SDS011;20809;49.594;8.734;2023-05-10T13:53:46;4.43;;;0.88;;
34573;SDS011;20809;49.594;8.734;2023-05-10T13:56:47;2.20;;;0.82;;
34573;SDS011;20809;49.594;8.734;2023-05-10T14:03:03;3.37;;;0.60;;
34573;SDS011;20809;49.594;8.734;2023-05-10T14:06:08;1.63;;;0.90;;
34573;SDS011;20809;49.594;8.734;2023-05-10T14:09:09;1.80;;;0.80;;
34573;SDS011;20809;49.594;8.734;2023-05-10T14:12:10;1.13;;;0.90;;
34573;SDS011;20809;49.594;8.734;2023-05-10T14:15:11;1.95;;;0.85;;
34573;SDS011;20809;49.594;8.734;2023-05-10T14:18:11;2.30;;;1.00;;
34573;SDS011;20809;49.594;8.734;2023-05-10T14:21:12;3.10;;;1.38;;
34573;SDS011;20809;49.594;8.734;2023-05-10T14:24:13;3.88;;;0.80;;
34573;SDS011;20809;49.594;8.734;2023-05-10T14:27:13;3.08;;;0.95;;
34573;SDS011;20809;49.594;8.734;2023-05-10T14:33:16;2.70;;;0.95;;
34573;SDS011;20809;49.594;8.734;2023-05-10T14:36:17;5.20;;;0.98;;
34573;SDS011;20809;49.594;8.734;2023-05-10T14:39:20;2.05;;;0.52;;
34573;SDS011;20809;49.594;8.734;2023-05-10T14:42:23;1.52;;;0.63;;
34573;SDS011;20809;49.594;8.734;2023-05-10T14:45:34;4.25;;;0.50;;
34573;SDS011;20809;49.594;8.734;2023-05-10T14:48:35;2.35;;;0.50;;
34573;SDS011;20809;49.594;8.734;2023-05-10T14:51:35;1.63;;;0.60;;
34573;SDS011;20809;49.594;8.734;2023-05-10T14:54:36;0.60;;;0.40;;
34573;SDS011;20809;49.594;8.734;2023-05-10T14:57:37;3.10;;;1.10;;
34573;SDS011;20809;49.594;8.734;2023-05-10T15:00:59;2.80;;;0.60;;
34573;SDS011;20809;49.594;8.734;2023-05-10T15:04:00;2.10;;;0.57;;
34573;SDS011;20809;49.594;8.734;2023-05-10T15:07:01;3.95;;;0.77;;
34573;SDS011;20809;49.594;8.734;2023-05-10T15:10:02;3.47;;;0.70;;
34573;SDS011;20809;49.594;8.734;2023-05-10T15:13:03;0.85;;;0.60;;
34573;SDS011;20809;49.594;8.734;2023-05-10T15:16:04;1.55;;;0.50;;
34573;SDS011;20809;49.594;8.734;2023-05-10T15:19:04;1.05;;;0.65;;
34573;SDS011;20809;49.594;8.734;2023-05-10T15:22:05;0.75;;;0.60;;
34573;SDS011;20809;49.594;8.734;2023-05-10T15:25:06;1.52;;;0.40;;
34573;SDS011;20809;49.594;8.734;2023-05-10T15:28:07;1.05;;;0.73;;
34573;SDS011;20809;49.594;8.734;2023-05-10T15:31:07;1.73;;;0.60;;
34573;SDS011;20809;49.594;8.734;2023-05-10T15:34:08;1.45;;;0.45;;
34573;SDS011;20809;49.594;8.734;2023-05-10T15:37:09;0.32;;;0.30;;
34573;SDS011;20809;49.594;8.734;2023-05-10T15:40:10;2.60;;;0.30;;
34573;SDS011;20809;49.594;8.734;2023-05-10T15:43:10;1.80;;;0.60;;
34573;SDS011;20809;49.594;8.734;2023-05-10T15:46:11;2.25;;;0.60;;
34573;SDS011;20809;49.594;8.734;2023-05-10T15:49:12;1.90;;;0.40;;
34573;SDS011;20809;49.594;8.734;2023-05-10T15:52:13;2.45;;;0.70;;
34573;SDS011;20809;49.594;8.734;2023-05-10T15:55:13;1.23;;;0.50;;
34573;SDS011;20809;49.594;8.734;2023-05-10T15:58:14;0.80;;;0.57;;
34573;SDS011;20809;49.594;8.734;2023-05-10T16:01:16;0.38;;;0.38;;
34573;SDS011;20809;49.594;8.734;2023-05-10T16:04:17;1.58;;;0.47;;
34573;SDS011;20809;49.594;8.734;2023-05-10T16:07:17;1.05;;;0.60;;
34573;SDS011;20809;49.594;8.734;2023-05-10T16:10:18;0.60;;;0.52;;
34573;SDS011;20809;49.594;8.734;2023-05-10T16:13:19;1.13;;;0.50;;
34573;SDS011;20809;49.594;8.734;2023-05-10T16:16:22;1.88;;;0.50;;
34573;SDS011;20809;49.594;8.734;2023-05-10T16:19:26;1.38;;;0.40;;
34573;SDS011;20809;49.594;8.734;2023-05-10T16:22:26;4.38;;;0.50;;
34573;SDS011;20809;49.594;8.734;2023-05-10T16:25:28;4.85;;;1.27;;
34573;SDS011;20809;49.594;8.734;2023-05-10T16:28:28;0.88;;;0.40;;
34573;SDS011;20809;49.594;8.734;2023-05-10T16:31:29;1.45;;;0.30;;
34573;SDS011;20809;49.594;8.734;2023-05-10T16:34:29;1.35;;;0.77;;
34573;SDS011;20809;49.594;8.734;2023-05-10T16:37:30;1.55;;;0.60;;
34573;SDS011;20809;49.594;8.734;2023-05-10T16:40:31;3.15;;;2.30;;
34573;SDS011;20809;49.594;8.734;2023-05-10T16:43:32;1.13;;;0.82;;
34573;SDS011;20809;49.594;8.734;2023-05-10T16:46:35;1.02;;;0.50;;
34573;SDS011;20809;49.594;8.734;2023-05-10T16:49:43;1.27;;;0.30;;
34573;SDS011;20809;49.594;8.734;2023-05-10T16:52:44;1.17;;;0.63;;
34573;SDS011;20809;49.594;8.734;2023-05-10T16:58:46;3.50;;;0.40;;
34573;SDS011;20809;49.594;8.734;2023-05-10T17:01:49;0.82;;;0.40;;
34573;SDS011;20809;49.594;8.734;2023-05-10T17:04:52;0.70;;;0.32;;
34573;SDS011;20809;49.594;8.734;2023-05-10T17:07:54;1.52;;;0.50;;
34573;SDS011;20809;49.594;8.734;2023-05-10T17:10:59;2.33;;;0.68;;
34573;SDS011;20809;49.594;8.734;2023-05-10T17:14:01;2.40;;;0.40;;
34573;SDS011;20809;49.594;8.734;2023-05-10T17:17:02;4.80;;;2.45;;
34573;SDS011;20809;49.594;8.734;2023-05-10T17:20:04;1.20;;;1.10;;
34573;SDS011;20809;49.594;8.734;2023-05-10T17:23:06;1.15;;;0.80;;
34573;SDS011;20809;49.594;8.734;2023-05-10T17:26:07;2.70;;;0.50;;
34573;SDS011;20809;49.594;8.734;2023-05-10T17:29:07;1.83;;;0.32;;
34573;SDS011;20809;49.594;8.734;2023-05-10T17:32:08;0.40;;;0.30;;
34573;SDS011;20809;49.594;8.734;2023-05-10T17:35:09;1.00;;;0.57;;
34573;SDS011;20809;49.594;8.734;2023-05-10T17:38:09;2.05;;;0.88;;
34573;SDS011;20809;49.594;8.734;2023-05-10T17:41:10;1.05;;;0.40;;
34573;SDS011;20809;49.594;8.734;2023-05-10T17:44:11;3.15;;;1.52;;
34573;SDS011;20809;49.594;8.734;2023-05-10T17:47:12;2.28;;;1.75;;
34573;SDS011;20809;49.594;8.734;2023-05-10T17:50:13;3.10;;;0.60;;
34573;SDS011;20809;49.594;8.734;2023-05-10T17:53:13;0.43;;;0.43;;
34573;SDS011;20809;49.594;8.734;2023-05-10T17:56:14;4.85;;;0.40;;
34573;SDS011;20809;49.594;8.734;2023-05-10T17:59:14;0.60;;;0.50;;
34573;SDS011;20809;49.594;8.734;2023-05-10T18:02:15;2.05;;;0.93;;
34573;SDS011;20809;49.594;8.734;2023-05-10T18:05:18;1.45;;;0.60;;
34573;SDS011;20809;49.594;8.734;2023-05-10T18:08:22;1.35;;;0.40;;
34573;SDS011;20809;49.594;8.734;2023-05-10T18:11:25;0.63;;;0.52;;
34573;SDS011;20809;49.594;8.734;2023-05-10T18:14:26;1.05;;;0.45;;
34573;SDS011;20809;49.594;8.734;2023-05-10T18:17:27;4.47;;;0.68;;
34573;SDS011;20809;49.594;8.734;2023-05-10T18:20:28;1.45;;;0.60;;
34573;SDS011;20809;49.594;8.734;2023-05-10T18:23:29;1.55;;;0.70;;
34573;SDS011;20809;49.594;8.734;2023-05-10T18:26:30;2.45;;;0.80;;
34573;SDS011;20809;49.594;8.734;2023-05-10T18:29:31;3.65;;;0.93;;
34573;SDS011;20809;49.594;8.734;2023-05-10T18:32:31;1.85;;;0.60;;
34573;SDS011;20809;49.594;8.734;2023-05-10T18:35:32;4.15;;;0.80;;
34573;SDS011;20809;49.594;8.734;2023-05-10T18:38:35;2.33;;;0.65;;
34573;SDS011;20809;49.594;8.734;2023-05-10T18:41:36;1.20;;;0.65;;
34573;SDS011;20809;49.594;8.734;2023-05-10T18:44:37;2.83;;;1.02;;
34573;SDS011;20809;49.594;8.734;2023-05-10T18:47:38;2.67;;;0.73;;
34573;SDS011;20809;49.594;8.734;2023-05-10T18:50:38;3.13;;;0.98;;
34573;SDS011;20809;49.594;8.734;2023-05-10T18:53:39;2.20;;;1.48;;
34573;SDS011;20809;49.594;8.734;2023-05-10T18:56:40;2.95;;;1.00;;
34573;SDS011;20809;49.594;8.734;2023-05-10T18:59:43;3.45;;;1.58;;
34573;SDS011;20809;49.594;8.734;2023-05-10T19:02:44;1.67;;;0.68;;
34573;SDS011;20809;49.594;8.734;2023-05-10T19:05:45;0.50;;;0.45;;
34573;SDS011;20809;49.594;8.734;2023-05-10T19:08:48;1.40;;;0.73;;
34573;SDS011;20809;49.594;8.734;2023-05-10T19:11:49;1.48;;;1.25;;
34573;SDS011;20809;49.594;8.734;2023-05-10T19:14:50;2.70;;;0.70;;
34573;SDS011;20809;49.594;8.734;2023-05-10T19:17:51;1.88;;;0.77;;
34573;SDS011;20809;49.594;8.734;2023-05-10T19:20:53;3.30;;;1.17;;
34573;SDS011;20809;49.594;8.734;2023-05-10T19:23:55;1.98;;;0.90;;
34573;SDS011;20809;49.594;8.734;2023-05-10T19:29:57;1.60;;;0.60;;
34573;SDS011;20809;49.594;8.734;2023-05-10T19:32:58;2.45;;;0.90;;
34573;SDS011;20809;49.594;8.734;2023-05-10T19:35:58;5.45;;;2.72;;
34573;SDS011;20809;49.594;8.734;2023-05-10T19:38:59;4.40;;;1.77;;
34573;SDS011;20809;49.594;8.734;2023-05-10T19:42:00;1.73;;;0.65;;
34573;SDS011;20809;49.594;8.734;2023-05-10T19:45:00;2.10;;;0.90;;
34573;SDS011;20809;49.594;8.734;2023-05-10T19:48:01;4.57;;;1.00;;
34573;SDS011;20809;49.594;8.734;2023-05-10T19:51:02;1.42;;;0.88;;
34573;SDS011;20809;49.594;8.734;2023-05-10T19:54:04;4.72;;;1.15;;
34573;SDS011;20809;49.594;8.734;2023-05-10T19:57:04;1.75;;;0.73;;